Time;durP1;ratioP1;P1;durP2;ratioP2;P2;SDS_P1;SDS_P2;PMS_P1;PMS_P2;Temp;Humidity;BMP_temperature;BMP_pressure;BME280_temperature;BME280_humidity;BME280_pressure;Samples;Min_cycle;Max_cycle;Signal;HPM_P1;HPM_P2
2022/09/23 00:01:10;;;;;;;8.87;5.40;;;9.00;99.90;;;;;;5053221;28;20640;-77
2022/09/23 00:03:40;;;;;;;7.77;5.10;;;9.00;99.90;;;;;;5035707;28;20206;-77
2022/09/23 00:06:16;;;;;;;9.23;5.43;;;8.90;99.90;;;;;;5035565;28;20198;-80
2022/09/23 00:08:43;;;;;;;10.37;5.87;;;8.90;99.90;;;;;;5036027;28;20223;-80
2022/09/23 00:11:13;;;;;;;10.17;5.50;;;8.90;99.90;;;;;;5035876;28;20191;-78
2022/09/23 00:13:43;;;;;;;10.13;6.10;;;8.90;99.90;;;;;;5019210;28;20243;-83
2022/09/23 00:16:37;;;;;;;10.43;6.23;;;8.90;99.90;;;;;;5051847;28;20271;-80
2022/09/23 00:19:04;;;;;;;12.40;7.37;;;8.80;99.90;;;;;;5031874;28;20207;-81
2022/09/23 00:21:32;;;;;;;11.37;6.80;;;8.80;99.90;;;;;;5015805;28;20222;-80
2022/09/23 00:23:59;;;;;;;11.10;7.50;;;8.80;99.90;;;;;;5016206;28;20202;-80
2022/09/23 00:26:28;;;;;;;13.03;8.10;;;8.80;99.90;;;;;;5042726;28;20304;-80
2022/09/23 00:28:55;;;;;;;14.60;8.73;;;8.80;99.90;;;;;;5053191;28;20211;-80
2022/09/23 00:31:24;;;;;;;15.43;8.53;;;8.80;99.90;;;;;;5018684;28;20532;-80
2022/09/23 00:33:56;;;;;;;12.67;7.90;;;8.70;99.90;;;;;;5038125;28;20202;-79
2022/09/23 00:36:24;;;;;;;12.47;8.33;;;8.70;99.90;;;;;;5035333;28;20190;-80
2022/09/23 00:38:52;;;;;;;13.27;7.70;;;8.70;99.90;;;;;;5035443;28;20191;-79
2022/09/23 00:41:20;;;;;;;11.30;7.53;;;8.60;99.90;;;;;;5035429;28;20214;-80
2022/09/23 00:43:56;;;;;;;10.93;7.53;;;8.60;99.90;;;;;;5052873;28;20608;-80
2022/09/23 00:46:38;;;;;;;11.77;7.03;;;8.60;99.90;;;;;;5035087;28;20635;-79
2022/09/23 00:49:11;;;;;;;12.90;7.73;;;8.70;99.90;;;;;;5035236;28;20739;-79
2022/09/23 00:51:53;;;;;;;10.97;7.07;;;8.60;99.90;;;;;;5034974;28;20191;-80
2022/09/23 00:54:23;;;;;;;10.00;6.53;;;8.60;99.90;;;;;;5035116;28;20205;-80
2022/09/23 00:56:50;;;;;;;9.43;6.73;;;8.60;99.90;;;;;;5035079;28;20264;-79
2022/09/23 00:59:19;;;;;;;11.27;6.90;;;8.60;99.90;;;;;;5034872;28;20239;-80
2022/09/23 01:01:53;;;;;;;10.83;7.40;;;8.60;99.90;;;;;;5052337;28;20586;-80
2022/09/23 01:04:23;;;;;;;10.43;6.63;;;8.50;99.90;;;;;;5034906;28;20616;-80
2022/09/23 01:06:50;;;;;;;11.40;6.47;;;8.50;99.90;;;;;;5035193;28;20217;-79
2022/09/23 01:09:17;;;;;;;11.03;6.73;;;8.50;99.90;;;;;;5036879;28;20231;-80
2022/09/23 01:12:10;;;;;;;10.17;6.50;;;8.50;99.90;;;;;;5019396;28;20195;-80
2022/09/23 01:15:54;;;;;;;9.10;6.13;;;8.50;99.90;;;;;;5018845;28;20205;-79
2022/09/23 01:18:33;;;;;;;11.60;6.83;;;8.50;99.90;;;;;;4950311;29;20223;-79
2022/09/23 01:21:21;;;;;;;10.57;6.97;;;8.50;99.90;;;;;;4940459;29;20724;-78
2022/09/23 01:24:18;;;;;;;12.33;6.93;;;8.50;99.90;;;;;;4940624;29;20205;-78
2022/09/23 01:26:57;;;;;;;10.90;6.50;;;8.50;99.90;;;;;;4940529;29;20217;-79
2022/09/23 01:29:46;;;;;;;8.83;6.27;;;8.50;99.90;;;;;;4940266;28;20249;-79
2022/09/23 01:32:53;;;;;;;10.93;7.30;;;8.50;99.90;;;;;;4956545;28;20196;-78
2022/09/23 01:35:29;;;;;;;10.40;6.90;;;8.40;99.90;;;;;;4956132;28;20210;-79
2022/09/23 01:38:15;;;;;;;14.10;7.50;;;8.40;99.90;;;;;;4956257;29;20606;-79
2022/09/23 01:41:46;;;;;;;10.90;7.20;;;8.40;99.90;;;;;;4956373;28;20196;-78
2022/09/23 01:44:33;;;;;;;11.03;6.80;;;8.40;99.90;;;;;;4899080;29;20210;-79
2022/09/23 01:47:13;;;;;;;10.87;6.87;;;8.40;99.90;;;;;;4883109;29;20211;-78
2022/09/23 01:50:00;;;;;;;12.77;7.00;;;8.30;99.90;;;;;;4946786;28;20649;-78
2022/09/23 01:52:35;;;;;;;10.37;6.67;;;8.40;99.90;;;;;;4975260;28;20233;-79
2022/09/23 01:55:25;;;;;;;11.60;7.23;;;8.40;99.90;;;;;;4958947;28;20697;-80
2022/09/23 01:58:03;;;;;;;11.17;7.33;;;8.40;99.90;;;;;;4959074;28;20211;-80
2022/09/23 02:00:39;;;;;;;10.47;6.50;;;8.30;99.90;;;;;;4958939;28;20734;-80
2022/09/23 02:03:25;;;;;;;12.03;6.60;;;8.30;99.90;;;;;;4959012;28;20210;-80
2022/09/23 02:06:00;;;;;;;13.23;6.77;;;8.30;99.90;;;;;;4958846;28;20200;-80
2022/09/23 02:08:40;;;;;;;10.70;6.67;;;8.30;99.90;;;;;;4974781;28;20239;-80
2022/09/23 02:11:17;;;;;;;9.70;6.60;;;8.20;99.90;;;;;;4959070;28;20205;-80
2022/09/23 02:14:02;;;;;;;9.60;6.50;;;8.10;99.90;;;;;;4965821;28;20212;-80
2022/09/23 02:16:38;;;;;;;9.90;6.63;;;8.10;99.90;;;;;;5032837;28;20262;-79
2022/09/23 02:19:40;;;;;;;10.37;6.77;;;8.10;99.90;;;;;;5037872;28;20293;-79
2022/09/23 02:22:16;;;;;;;12.27;7.03;;;8.20;99.90;;;;;;5055456;28;20273;-80
2022/09/23 02:24:44;;;;;;;9.87;6.60;;;8.10;99.90;;;;;;5038375;28;20204;-79
2022/09/23 02:27:45;;;;;;;11.07;6.60;;;8.00;99.90;;;;;;5055785;28;20193;-80
2022/09/23 02:30:18;;;;;;;11.80;7.27;;;8.00;99.90;;;;;;5037589;28;20258;-79
2022/09/23 02:33:07;;;;;;;10.87;7.07;;;8.00;99.90;;;;;;5021424;28;20293;-79
2022/09/23 02:35:52;;;;;;;13.63;7.67;;;8.00;99.90;;;;;;5037378;28;20201;-79
2022/09/23 02:38:39;;;;;;;13.33;7.47;;;7.90;99.90;;;;;;5021212;28;20205;-79
2022/09/23 02:41:08;;;;;;;11.47;7.63;;;7.90;99.90;;;;;;5055194;28;20194;-80
2022/09/23 02:43:47;;;;;;;12.13;7.47;;;7.90;99.90;;;;;;5037531;28;20665;-79
2022/09/23 02:46:15;;;;;;;10.77;7.30;;;7.80;99.90;;;;;;5055242;28;20200;-79
2022/09/23 02:48:47;;;;;;;14.07;8.00;;;7.70;99.90;;;;;;5037392;28;20333;-79
2022/09/23 02:51:14;;;;;;;12.00;7.90;;;7.70;99.90;;;;;;5037357;28;20199;-79
2022/09/23 02:53:45;;;;;;;12.77;8.20;;;7.70;99.90;;;;;;5054893;28;20183;-78
2022/09/23 02:56:19;;;;;;;12.30;7.60;;;7.80;99.90;;;;;;5055060;28;20557;-79
2022/09/23 02:58:52;;;;;;;12.13;8.37;;;7.70;99.90;;;;;;5036958;28;20210;-79
2022/09/23 03:01:57;;;;;;;13.30;8.80;;;7.60;99.90;;;;;;5037209;28;20317;-79
2022/09/23 03:04:53;;;;;;;15.80;7.83;;;7.60;99.90;;;;;;5036561;28;20204;-79
2022/09/23 03:07:32;;;;;;;12.17;8.10;;;7.60;99.90;;;;;;5036916;28;20213;-79
2022/09/23 03:10:25;;;;;;;12.13;8.30;;;7.60;99.90;;;;;;5054686;28;20217;-79
2022/09/23 03:13:21;;;;;;;14.40;9.03;;;7.70;99.90;;;;;;5036879;28;20287;-79
2022/09/23 03:16:07;;;;;;;11.90;8.20;;;7.70;99.90;;;;;;5050890;28;20284;-79
2022/09/23 03:18:52;;;;;;;13.60;8.90;;;7.60;99.90;;;;;;5036869;28;20191;-79
2022/09/23 03:21:33;;;;;;;14.40;8.40;;;7.60;99.90;;;;;;5036187;28;20647;-78
2022/09/23 03:24:06;;;;;;;13.97;9.00;;;7.60;99.90;;;;;;5036873;28;20201;-78
2022/09/23 03:26:37;;;;;;;17.47;9.17;;;7.70;99.90;;;;;;5036481;28;20642;-78
2022/09/23 03:29:10;;;;;;;16.70;9.53;;;7.80;99.90;;;;;;5036483;28;20621;-77
2022/09/23 03:31:38;;;;;;;13.87;8.80;;;7.70;99.90;;;;;;5036198;28;20196;-78
2022/09/23 03:34:16;;;;;;;14.27;8.80;;;7.70;99.90;;;;;;5054282;28;20205;-77
2022/09/23 03:36:58;;;;;;;14.43;9.07;;;7.80;99.90;;;;;;5036336;28;20507;-78
2022/09/23 03:39:38;;;;;;;15.93;9.23;;;7.80;99.90;;;;;;5021152;28;20198;-78
2022/09/23 03:42:29;;;;;;;13.20;9.00;;;7.80;99.90;;;;;;5036262;28;20726;-78
2022/09/23 03:44:57;;;;;;;15.40;8.93;;;7.80;99.90;;;;;;5035927;28;20659;-78
2022/09/23 03:47:29;;;;;;;13.37;9.07;;;7.70;99.90;;;;;;5036429;28;20201;-77
2022/09/23 03:50:04;;;;;;;14.17;9.40;;;7.80;99.90;;;;;;5036126;28;20726;-78
2022/09/23 03:52:31;;;;;;;14.73;9.50;;;7.70;99.90;;;;;;5035911;28;20666;-78
2022/09/23 03:58:21;;;;;;;13.57;9.00;;;7.70;99.90;;;;;;5035812;28;20202;-78
2022/09/23 04:00:48;;;;;;;15.13;8.87;;;7.60;99.90;;;;;;5035842;28;20216;-78
2022/09/23 04:03:17;;;;;;;14.30;9.93;;;7.60;99.90;;;;;;5053649;28;20229;-79
2022/09/23 04:05:45;;;;;;;14.20;9.23;;;7.60;99.90;;;;;;5041490;28;20575;-79
2022/09/23 04:08:18;;;;;;;15.10;9.50;;;7.60;99.90;;;;;;5055830;28;20603;-79
2022/09/23 04:10:45;;;;;;;14.87;8.87;;;7.50;99.90;;;;;;5061965;28;20209;-78
2022/09/23 04:13:17;;;;;;;13.80;9.50;;;7.40;99.90;;;;;;5053682;28;20217;-78
2022/09/23 04:15:48;;;;;;;14.80;8.93;;;7.40;99.90;;;;;;5053322;28;20220;-79
2022/09/23 04:18:16;;;;;;;13.37;8.93;;;7.40;99.90;;;;;;5036335;28;20703;-79
2022/09/23 04:20:47;;;;;;;12.80;8.73;;;7.40;99.90;;;;;;5035700;28;20561;-79
2022/09/23 04:23:14;;;;;;;13.73;9.23;;;7.40;99.90;;;;;;5035683;28;20192;-79
2022/09/23 04:25:48;;;;;;;19.10;10.07;;;7.40;99.90;;;;;;5056427;28;20202;-79
2022/09/23 04:28:15;;;;;;;13.57;9.23;;;7.30;99.90;;;;;;5035261;28;20566;-78
2022/09/23 04:30:43;;;;;;;14.73;9.10;;;7.30;99.90;;;;;;5053043;28;20673;-77
2022/09/23 04:33:11;;;;;;;15.93;10.17;;;7.30;99.90;;;;;;5035937;28;20194;-79
2022/09/23 04:35:38;;;;;;;14.47;9.37;;;7.30;99.90;;;;;;5035218;28;20204;-78
2022/09/23 04:38:13;;;;;;;15.20;9.80;;;7.30;99.90;;;;;;5053077;28;20190;-76
2022/09/23 04:40:40;;;;;;;18.90;9.73;;;7.30;99.90;;;;;;5035174;28;20542;-79
2022/09/23 04:43:08;;;;;;;15.70;9.47;;;7.20;99.90;;;;;;5052309;28;20233;-79
2022/09/23 04:45:43;;;;;;;17.63;9.70;;;7.30;99.90;;;;;;5034431;28;20305;-78
2022/09/23 04:48:12;;;;;;;16.50;10.50;;;7.30;99.90;;;;;;5015464;28;20561;-79
2022/09/23 04:50:40;;;;;;;19.30;10.33;;;7.30;99.90;;;;;;5015260;28;20199;-78
2022/09/23 04:53:07;;;;;;;18.63;10.43;;;7.30;99.90;;;;;;5033563;28;20206;-79
2022/09/23 04:55:34;;;;;;;17.13;11.10;;;7.20;99.90;;;;;;5019559;28;20542;-78
2022/09/23 04:58:00;;;;;;;17.47;10.50;;;7.20;99.90;;;;;;5035512;28;20653;-77
2022/09/23 05:00:28;;;;;;;19.23;11.57;;;7.20;99.90;;;;;;5034722;28;20224;-78
2022/09/23 05:02:55;;;;;;;18.30;11.13;;;7.30;99.90;;;;;;5035372;28;20209;-78
2022/09/23 05:05:22;;;;;;;21.40;12.37;;;7.20;99.90;;;;;;5035380;28;20192;-78
2022/09/23 05:07:50;;;;;;;20.00;12.30;;;7.10;99.90;;;;;;5034989;28;20208;-78
2022/09/23 05:10:17;;;;;;;21.13;12.03;;;7.20;99.90;;;;;;5052596;28;20241;-78
2022/09/23 05:12:44;;;;;;;22.03;12.67;;;7.20;99.90;;;;;;5034898;28;20193;-77
2022/09/23 05:15:15;;;;;;;22.17;13.33;;;7.30;99.90;;;;;;5018052;28;20237;-78
2022/09/23 05:17:42;;;;;;;27.07;14.10;;;7.30;99.90;;;;;;5034923;28;20209;-77
2022/09/23 05:20:10;;;;;;;31.33;14.77;;;7.40;99.90;;;;;;5034828;28;20248;-77
2022/09/23 05:22:37;;;;;;;38.90;16.47;;;7.40;99.90;;;;;;5092456;22;20235;-76
2022/09/23 05:25:04;;;;;;;31.90;15.40;;;7.40;99.90;;;;;;5092764;28;20594;-76
2022/09/23 05:27:31;;;;;;;31.13;16.00;;;7.50;99.90;;;;;;5073412;28;20653;-76
2022/09/23 05:30:02;;;;;;;35.13;16.43;;;7.40;99.90;;;;;;5074486;28;20222;-77
2022/09/23 05:32:29;;;;;;;36.30;15.13;;;7.40;99.90;;;;;;5074420;28;20200;-76
2022/09/23 05:34:56;;;;;;;32.87;14.80;;;7.50;99.90;;;;;;5092706;28;20239;-76
2022/09/23 05:37:24;;;;;;;31.10;15.27;;;7.60;99.90;;;;;;5074651;28;20561;-76
2022/09/23 05:39:51;;;;;;;31.87;15.10;;;7.70;99.90;;;;;;5070935;28;20221;-76
2022/09/23 05:42:24;;;;;;;33.90;15.20;;;7.70;99.90;;;;;;5092722;28;20200;-74
2022/09/23 05:44:51;;;;;;;33.53;15.40;;;7.80;99.90;;;;;;5074357;28;20551;-77
2022/09/23 05:47:18;;;;;;;30.70;14.80;;;7.80;99.90;;;;;;5092438;28;20196;-77
2022/09/23 05:49:47;;;;;;;32.03;15.27;;;7.80;99.90;;;;;;5074476;28;20224;-77
2022/09/23 05:52:26;;;;;;;30.50;14.77;;;7.80;99.90;;;;;;5092554;28;20199;-78
2022/09/23 05:54:53;;;;;;;30.17;14.77;;;7.90;99.90;;;;;;5075079;28;20650;-76
2022/09/23 05:57:29;;;;;;;32.43;16.57;;;8.00;99.90;;;;;;5092731;28;20186;-76
2022/09/23 05:59:56;;;;;;;29.87;14.73;;;8.10;99.90;;;;;;5096393;28;20292;-75
2022/09/23 06:02:23;;;;;;;30.13;15.33;;;8.10;99.90;;;;;;5077936;28;20208;-75
2022/09/23 06:04:50;;;;;;;30.30;14.73;;;8.10;99.90;;;;;;5077642;28;20330;-76
2022/09/23 06:07:17;;;;;;;32.37;15.43;;;8.10;99.90;;;;;;5077703;28;20204;-75
2022/09/23 06:09:44;;;;;;;30.53;14.77;;;8.00;99.90;;;;;;5077604;28;20252;-75
2022/09/23 06:12:13;;;;;;;27.20;14.07;;;8.20;99.90;;;;;;5077483;28;20197;-74
2022/09/23 06:14:40;;;;;;;30.90;15.80;;;8.30;99.90;;;;;;5085941;22;20245;-75
2022/09/23 06:17:07;;;;;;;29.20;16.03;;;8.50;99.90;;;;;;5086358;28;20303;-75
2022/09/23 06:19:36;;;;;;;33.43;15.87;;;8.60;99.90;;;;;;5092397;28;20199;-77
2022/09/23 06:22:03;;;;;;;28.40;14.97;;;8.70;99.90;;;;;;5076289;28;21756;-75
2022/09/23 06:24:30;;;;;;;29.03;15.30;;;8.80;99.90;;;;;;5075143;28;20534;-75
2022/09/23 06:27:01;;;;;;;28.07;14.47;;;8.80;99.90;;;;;;5076703;28;20251;-76
2022/09/23 06:29:32;;;;;;;30.10;15.30;;;8.90;99.90;;;;;;5075004;28;20294;-75
2022/09/23 06:31:58;;;;;;;30.07;15.53;;;8.90;99.90;;;;;;5065992;28;20651;-75
2022/09/23 06:34:25;;;;;;;27.60;14.73;;;9.00;99.90;;;;;;5091162;28;20276;-76
2022/09/23 06:36:54;;;;;;;28.73;13.43;;;9.20;99.90;;;;;;5095672;28;20593;-78
2022/09/23 06:39:21;;;;;;;29.17;13.20;;;9.20;99.90;;;;;;5077116;28;20528;-76
2022/09/23 06:41:48;;;;;;;25.03;13.17;;;9.10;99.90;;;;;;5095435;28;20197;-76
2022/09/23 06:44:15;;;;;;;26.73;13.23;;;9.20;99.90;;;;;;5077280;28;20194;-79
2022/09/23 06:46:42;;;;;;;24.40;12.80;;;9.30;99.90;;;;;;5076889;28;20181;-74
2022/09/23 06:49:11;;;;;;;26.55;14.38;;;9.40;99.90;;;;;;5076902;28;20524;-74
2022/09/23 06:51:39;;;;;;;29.13;15.88;;;9.60;99.90;;;;;;5090828;28;20487;-74
2022/09/23 06:54:06;;;;;;;25.47;13.93;;;9.70;99.90;;;;;;5089216;28;20243;-74
2022/09/23 06:56:33;;;;;;;23.87;13.00;;;9.80;99.90;;;;;;5076937;28;20228;-74
2022/09/23 06:59:09;;;;;;;25.52;14.70;;;9.90;99.90;;;;;;5076073;28;20508;-76
2022/09/23 07:01:39;;;;;;;21.00;12.43;;;9.80;99.90;;;;;;5094977;28;20666;-77
2022/09/23 07:04:09;;;;;;;19.43;11.33;;;9.90;99.90;;;;;;5094815;28;20190;-75
2022/09/23 07:06:36;;;;;;;15.57;9.93;;;9.90;99.90;;;;;;5093937;28;20541;-74
2022/09/23 07:09:05;;;;;;;18.00;9.93;;;9.90;99.90;;;;;;5087471;28;20214;-74
2022/09/23 07:11:32;;;;;;;18.73;10.23;;;9.90;99.90;;;;;;5093483;28;20212;-73
2022/09/23 07:13:59;;;;;;;16.57;10.40;;;9.80;99.90;;;;;;5076968;28;20213;-73
2022/09/23 07:16:26;;;;;;;17.30;10.27;;;10.00;99.90;;;;;;5076455;28;20217;-73
2022/09/23 07:18:54;;;;;;;18.93;10.50;;;10.00;99.90;;;;;;5074492;28;20189;-74
2022/09/23 07:21:21;;;;;;;17.13;10.17;;;10.10;99.90;;;;;;5074330;28;20198;-74
2022/09/23 07:23:51;;;;;;;18.30;10.60;;;10.20;99.90;;;;;;5071560;28;20213;-74
2022/09/23 07:26:19;;;;;;;16.77;10.57;;;10.10;99.90;;;;;;5070248;28;20194;-76
2022/09/23 07:28:46;;;;;;;18.33;10.80;;;10.10;99.90;;;;;;5075554;28;20189;-74
2022/09/23 07:31:16;;;;;;;15.80;10.10;;;10.10;99.90;;;;;;5092902;28;20186;-76
2022/09/23 07:34:03;;;;;;;19.00;10.57;;;10.10;99.90;;;;;;5077100;28;20546;-77
2022/09/23 07:36:31;;;;;;;17.97;10.43;;;10.20;99.90;;;;;;5077206;28;20547;-77
2022/09/23 07:39:02;;;;;;;14.93;10.33;;;10.30;99.90;;;;;;5074692;28;20190;-75
2022/09/23 07:41:30;;;;;;;19.10;10.27;;;10.30;99.90;;;;;;5074586;28;20194;-74
2022/09/23 07:43:59;;;;;;;16.67;10.47;;;10.40;99.90;;;;;;5076324;28;20204;-75
2022/09/23 07:46:31;;;;;;;19.40;10.70;;;10.50;99.90;;;;;;5073576;28;20658;-74
2022/09/23 07:48:59;;;;;;;18.70;10.63;;;10.60;99.90;;;;;;5092372;28;20189;-73
2022/09/23 07:51:32;;;;;;;21.50;11.57;;;10.70;99.90;;;;;;5074378;28;20219;-74
2022/09/23 07:54:08;;;;;;;16.97;10.87;;;10.80;99.90;;;;;;5075879;28;20189;-76
2022/09/23 07:56:36;;;;;;;20.17;11.87;;;10.70;99.90;;;;;;5092258;28;20189;-75
2022/09/23 07:59:07;;;;;;;18.87;11.60;;;10.90;99.90;;;;;;5072165;28;20186;-73
2022/09/23 08:01:41;;;;;;;15.00;8.73;;;11.00;99.90;;;;;;5092586;28;20220;-74
2022/09/23 08:04:17;;;;;;;15.37;9.10;;;11.10;99.90;;;;;;5075547;28;20194;-73
2022/09/23 08:06:50;;;;;;;10.93;7.13;;;11.30;99.90;;;;;;5075523;28;20204;-73
2022/09/23 08:09:18;;;;;;;11.77;6.87;;;11.40;99.90;;;;;;5075073;28;20283;-73
2022/09/23 08:11:45;;;;;;;13.67;8.13;;;11.50;99.90;;;;;;5091423;28;20198;-74
2022/09/23 08:14:14;;;;;;;11.70;7.63;;;11.50;99.90;;;;;;5075398;28;20570;-74
2022/09/23 08:16:43;;;;;;;6.20;3.63;;;11.80;99.90;;;;;;5075260;28;20267;-72
2022/09/23 08:19:11;;;;;;;5.43;3.70;;;11.70;99.90;;;;;;5091734;28;20615;-74
2022/09/23 08:21:40;;;;;;;6.60;3.40;;;12.10;99.90;;;;;;5072872;28;20194;-76
2022/09/23 08:24:14;;;;;;;6.67;2.30;;;12.30;99.90;;;;;;5088537;28;20548;-72
2022/09/23 08:26:42;;;;;;;4.40;2.57;;;12.40;99.90;;;;;;5071538;28;20285;-72
2022/09/23 08:29:12;;;;;;;4.67;2.43;;;12.80;99.90;;;;;;5073952;28;20191;-72
2022/09/23 08:31:39;;;;;;;4.40;1.90;;;13.40;99.90;;;;;;5072723;28;20299;-72
2022/09/23 08:34:06;;;;;;;4.07;1.90;;;13.80;99.90;;;;;;5093286;28;20186;-72
2022/09/23 08:36:34;;;;;;;2.77;1.70;;;14.00;99.90;;;;;;5070461;28;21680;-72
2022/09/23 08:39:02;;;;;;;2.73;1.90;;;14.40;99.90;;;;;;5071964;28;20211;-71
2022/09/23 08:41:57;;;;;;;3.17;1.67;;;14.50;99.90;;;;;;5092985;28;20560;-73
2022/09/23 08:44:29;;;;;;;3.90;2.00;;;14.30;99.90;;;;;;5092751;28;20202;-72
2022/09/23 08:47:12;;;;;;;3.47;1.70;;;14.40;99.90;;;;;;5091069;28;20239;-71
2022/09/23 08:49:47;;;;;;;2.70;1.17;;;14.50;99.90;;;;;;5074959;28;20199;-72
2022/09/23 08:52:41;;;;;;;1.50;1.20;;;14.60;99.90;;;;;;5072670;28;20188;-71
2022/09/23 08:55:13;;;;;;;2.40;1.20;;;14.30;99.90;;;;;;5063193;28;20198;-71
2022/09/23 08:57:49;;;;;;;3.33;2.03;;;14.20;99.90;;;;;;5067774;28;20182;-71
2022/09/23 09:00:40;;;;;;;2.67;1.20;;;14.00;99.90;;;;;;5062884;28;20182;-72
2022/09/23 09:03:22;;;;;;;5.03;1.07;;;14.40;99.90;;;;;;5072388;28;20199;-72
2022/09/23 09:05:53;;;;;;;1.37;0.93;;;15.00;99.90;;;;;;5068907;28;20219;-73
2022/09/23 09:08:30;;;;;;;1.90;1.20;;;15.40;99.90;;;;;;5092280;28;20215;-72
2022/09/23 09:10:57;;;;;;;2.03;1.40;;;15.70;99.90;;;;;;5092711;28;20224;-73
2022/09/23 09:13:52;;;;;;;3.90;1.60;;;16.00;99.90;;;;;;5092513;28;20239;-72
2022/09/23 09:16:43;;;;;;;3.00;1.60;;;16.60;99.90;;;;;;5056064;28;20269;-73
2022/09/23 09:19:51;;;;;;;4.33;1.90;;;16.60;99.90;;;;;;5089195;28;20193;-72
2022/09/23 09:22:35;;;;;;;2.73;1.60;;;16.60;99.90;;;;;;5073868;28;20186;-72
2022/09/23 09:25:22;;;;;;;2.23;1.40;;;16.90;99.90;;;;;;5090207;28;20205;-73
2022/09/23 09:27:56;;;;;;;2.30;1.50;;;16.70;99.90;;;;;;5040776;28;20189;-74
2022/09/23 09:30:24;;;;;;;1.77;1.40;;;16.40;99.90;;;;;;5072586;28;20205;-72
2022/09/23 09:33:01;;;;;;;3.63;1.80;;;16.00;99.90;;;;;;5079215;28;20196;-72
2022/09/23 09:36:00;;;;;;;4.03;1.90;;;15.60;99.90;;;;;;5075409;28;20196;-74
2022/09/23 09:38:27;;;;;;;2.80;1.90;;;16.00;99.90;;;;;;5013934;28;20215;-74
2022/09/23 09:41:00;;;;;;;5.43;2.00;;;16.70;99.90;;;;;;5017432;28;20202;-74
2022/09/23 09:43:28;;;;;;;4.13;2.13;;;17.30;99.90;;;;;;5017015;28;20591;-73
2022/09/23 09:46:16;;;;;;;3.40;1.83;;;18.10;99.90;;;;;;5016878;28;20293;-73
2022/09/23 09:48:55;;;;;;;3.80;2.17;;;18.90;99.90;;;;;;5017096;28;20199;-73
2022/09/23 09:51:24;;;;;;;3.60;2.17;;;19.30;99.90;;;;;;5017198;28;20223;-73
2022/09/23 09:53:54;;;;;;;2.40;2.00;;;19.30;99.90;;;;;;5016948;28;20268;-73
2022/09/23 09:56:31;;;;;;;5.03;2.30;;;19.20;99.90;;;;;;5033611;28;20211;-74
2022/09/23 09:59:12;;;;;;;3.67;2.50;;;18.90;99.90;;;;;;5017223;28;20652;-73
2022/09/23 10:01:41;;;;;;;2.80;2.03;;;18.60;99.90;;;;;;5033449;28;20195;-73
2022/09/23 10:04:32;;;;;;;3.43;1.90;;;18.60;99.90;;;;;;5016697;28;20209;-72
2022/09/23 10:07:11;;;;;;;2.67;1.40;;;18.90;99.90;;;;;;5035395;28;20199;-75
2022/09/23 10:09:47;;;;;;;1.23;1.10;;;19.40;99.90;;;;;;5019841;28;20637;-74
2022/09/23 10:12:20;;;;;;;2.70;1.30;;;19.90;99.90;;;;;;5026630;28;20216;-74
2022/09/23 10:14:50;;;;;;;2.70;1.33;;;20.60;99.90;;;;;;5029051;28;20595;-74
2022/09/23 10:17:32;;;;;;;2.00;1.77;;;21.00;99.90;;;;;;5073985;28;20223;-73
2022/09/23 10:20:05;;;;;;;2.20;1.60;;;21.10;99.90;;;;;;5075712;28;20532;-75
2022/09/23 10:22:37;;;;;;;2.43;1.47;;;20.40;99.90;;;;;;5062596;28;20193;-73
2022/09/23 10:25:26;;;;;;;1.73;1.33;;;20.40;99.90;;;;;;5075969;28;20193;-76
2022/09/23 10:27:53;;;;;;;2.23;1.40;;;20.40;99.90;;;;;;5076473;28;20185;-75
2022/09/23 10:30:23;;;;;;;1.67;1.20;;;20.40;99.90;;;;;;5058438;28;20771;-75
2022/09/23 10:32:53;;;;;;;1.70;1.10;;;20.90;99.90;;;;;;5092627;28;20194;-76
2022/09/23 10:35:23;;;;;;;2.53;1.42;;;21.00;99.90;;;;;;5074770;28;20449;-74
2022/09/23 10:37:58;;;;;;;1.77;1.40;;;21.40;99.90;;;;;;5092290;28;20274;-74
2022/09/23 10:46:52;;;;;;;0.80;0.60;;;20.90;99.00;;;;;;5068153;28;20194;-74
2022/09/23 10:49:43;;;;;;;3.43;1.00;;;20.60;97.30;;;;;;5073399;28;20186;-74
2022/09/23 10:52:41;;;;;;;1.57;0.90;;;20.60;97.50;;;;;;5072147;28;20594;-74
2022/09/23 10:55:32;;;;;;;2.67;0.83;;;20.80;95.90;;;;;;5075284;28;20194;-74
2022/09/23 10:58:08;;;;;;;1.13;0.80;;;21.10;96.70;;;;;;5073092;28;20193;-74
2022/09/23 11:01:36;;;;;;;1.67;0.80;;;21.60;95.70;;;;;;5057635;28;20224;-73
2022/09/23 11:04:24;;;;;;;1.40;0.80;;;21.60;92.90;;;;;;4961603;28;20225;-72
2022/09/23 11:07:13;;;;;;;0.90;0.70;;;22.10;93.50;;;;;;4957235;28;20202;-74
2022/09/23 11:09:48;;;;;;;1.20;1.00;;;21.30;90.70;;;;;;4957194;28;20206;-73
2022/09/23 11:12:37;;;;;;;1.77;0.90;;;20.90;91.70;;;;;;4973784;28;20193;-73
2022/09/23 11:15:39;;;;;;;1.37;0.80;;;20.10;92.20;;;;;;4973381;28;20581;-72
2022/09/23 11:19:01;;;;;;;1.40;0.70;;;19.60;92.80;;;;;;4973362;28;20358;-73
2022/09/23 11:21:52;;;;;;;2.30;1.00;;;19.00;95.10;;;;;;4944646;28;20225;-72
2022/09/23 11:24:49;;;;;;;2.50;0.90;;;18.60;95.80;;;;;;4966559;28;20197;-73
2022/09/23 11:27:29;;;;;;;1.40;1.10;;;18.50;96.90;;;;;;4983322;28;20197;-73
2022/09/23 11:30:15;;;;;;;2.47;0.97;;;18.00;96.00;;;;;;4966225;28;20279;-75
2022/09/23 11:33:19;;;;;;;3.43;0.90;;;17.40;97.20;;;;;;4973112;28;20205;-73
2022/09/23 11:36:01;;;;;;;1.90;1.00;;;17.10;98.20;;;;;;4977166;28;20273;-76
2022/09/23 11:38:41;;;;;;;2.30;1.10;;;16.80;98.40;;;;;;4988229;28;20206;-72
2022/09/23 11:41:24;;;;;;;1.17;0.80;;;17.30;99.80;;;;;;5058085;28;20292;-74
2022/09/23 11:44:22;;;;;;;1.23;0.70;;;19.00;97.10;;;;;;5056951;28;20202;-76
2022/09/23 11:47:20;;;;;;;1.00;0.80;;;20.60;93.00;;;;;;5073717;28;20225;-72
2022/09/23 11:50:19;;;;;;;1.53;1.10;;;21.80;92.10;;;;;;5070080;28;20212;-72
2022/09/23 11:53:01;;;;;;;1.47;0.90;;;22.50;87.80;;;;;;4994117;28;20211;-72
2022/09/23 11:55:35;;;;;;;2.33;1.30;;;23.60;89.20;;;;;;5011558;28;20599;-71
2022/09/23 11:58:13;;;;;;;1.20;0.70;;;24.40;85.40;;;;;;4995466;28;20206;-75
2022/09/23 12:01:17;;;;;;;0.90;0.70;;;25.00;78.10;;;;;;4995518;28;20211;-76
2022/09/23 12:03:58;;;;;;;2.50;0.80;;;25.70;78.10;;;;;;4935534;29;20689;-75
2022/09/23 12:07:13;;;;;;;0.90;0.60;;;26.40;68.70;;;;;;4943043;29;20226;-75
2022/09/23 12:10:04;;;;;;;2.08;0.90;;;25.90;64.70;;;;;;4901425;29;20196;-74
2022/09/23 12:13:03;;;;;;;2.10;0.80;;;26.70;64.00;;;;;;4906002;29;20603;-74
2022/09/23 12:16:08;;;;;;;3.42;1.00;;;25.90;63.00;;;;;;4895251;29;20614;-74
2022/09/23 12:19:03;;;;;;;1.05;0.73;;;24.70;65.10;;;;;;4912943;29;20211;-78
2022/09/23 12:21:51;;;;;;;1.17;0.90;;;24.00;65.80;;;;;;4911350;29;20196;-76
2022/09/23 12:24:49;;;;;;;2.10;0.90;;;23.60;65.40;;;;;;4911844;29;20203;-74
2022/09/23 12:27:38;;;;;;;1.23;0.82;;;23.20;67.60;;;;;;4913014;29;20293;-73
2022/09/23 12:30:18;;;;;;;1.45;0.80;;;24.00;67.90;;;;;;4944288;28;20348;-75
2022/09/23 12:32:50;;;;;;;2.45;0.90;;;24.50;65.50;;;;;;4982584;28;20216;-78
2022/09/23 12:35:36;;;;;;;0.93;0.80;;;24.20;65.10;;;;;;4974767;28;20212;-77
2022/09/23 12:38:21;;;;;;;1.53;1.07;;;23.10;65.50;;;;;;4953895;28;20702;-75
2022/09/23 12:40:51;;;;;;;2.37;1.10;;;21.40;69.70;;;;;;4990079;28;20194;-76
2022/09/23 12:43:33;;;;;;;1.23;1.10;;;20.60;72.90;;;;;;5032935;28;20668;-75
2022/09/23 12:46:24;;;;;;;1.50;1.00;;;19.90;75.30;;;;;;5032898;28;20195;-76
2022/09/23 12:48:56;;;;;;;1.10;1.00;;;19.30;78.30;;;;;;5041217;28;20199;-75
2022/09/23 12:51:24;;;;;;;1.03;0.80;;;18.90;80.90;;;;;;5097862;28;20209;-76
2022/09/23 12:53:59;;;;;;;2.27;0.97;;;18.90;83.10;;;;;;5072929;28;20186;-77
2022/09/23 12:56:33;;;;;;;1.60;0.90;;;18.80;81.10;;;;;;5095495;28;20189;-78
2022/09/23 12:59:11;;;;;;;1.47;0.80;;;18.80;81.80;;;;;;5056036;28;20243;-76
2022/09/23 13:01:38;;;;;;;1.13;0.70;;;18.30;82.00;;;;;;5076198;28;20193;-76
2022/09/23 13:06:56;;;;;;;1.10;0.90;;;18.40;84.70;;;;;;5075397;28;20582;-77
2022/09/23 13:09:32;;;;;;;1.17;0.90;;;18.40;84.90;;;;;;5057625;28;20192;-75
2022/09/23 13:12:07;;;;;;;1.53;0.80;;;18.00;85.70;;;;;;5073312;28;20266;-75
2022/09/23 13:14:35;;;;;;;4.93;0.90;;;17.80;87.50;;;;;;5074657;28;20315;-76
2022/09/23 13:17:03;;;;;;;1.63;0.90;;;17.80;87.70;;;;;;5073521;28;20686;-75
2022/09/23 13:19:30;;;;;;;1.20;0.90;;;17.70;88.70;;;;;;5074240;28;20326;-76
2022/09/23 13:22:07;;;;;;;1.43;1.03;;;17.50;87.60;;;;;;5073941;28;20200;-79
2022/09/23 13:24:53;;;;;;;2.60;1.23;;;17.30;89.00;;;;;;5072692;28;20589;-75
2022/09/23 13:27:21;;;;;;;1.10;1.00;;;17.20;89.60;;;;;;5091603;28;20208;-73
2022/09/23 13:30:13;;;;;;;2.27;1.10;;;17.10;90.60;;;;;;5089858;28;20211;-73
2022/09/23 13:33:00;;;;;;;1.53;1.00;;;17.10;90.70;;;;;;5092972;28;20221;-75
2022/09/23 13:35:36;;;;;;;2.57;1.10;;;16.80;91.80;;;;;;5071713;28;20200;-75
2022/09/23 13:38:17;;;;;;;1.43;1.10;;;16.70;92.10;;;;;;5070199;28;20255;-74
2022/09/23 13:40:45;;;;;;;2.27;1.10;;;16.50;92.60;;;;;;5089868;28;20684;-76
2022/09/23 13:43:38;;;;;;;2.07;1.30;;;16.40;92.50;;;;;;5072216;28;20193;-77